Shelby, NC (28152)

10:44 AM EST on March 05, 2015 (GMT -0500)
Maw's | Change Station
CLOSE
Current Station
Personal Weather Station
Location: Shelby, NC
Elevation: 818 ft
Nearby Weather Stations

Elev 818 ft 35.27 °N, 81.55 °W | Updated 2 minutes ago

Overcast
Overcast
64.3 °F
Feels Like 64.3 °F
N
7.0
Wind Variable Wind from SE
Gusts 15.0 mph

Today
High -- | Low -- °F
--% Chance of Precip.
Yesterday
High -- | Low -- °F
Precip. -- in
6:50 AM 6:25 PM
Full, 100% visible
Pressure 29.86 in
Visibility 10.0 miles
Clouds Mostly Cloudy 1200 ft
Overcast 1800 ft
Dew Point 64 °F
Humidity 99%
Rainfall in
Snow Depth Not available.
UV 2 out of 12
Pollen 2.00 out of 12
Air Quality Not available.
Flu Activity Not available.
METAR KEHO 051535Z AUTO 20013G21KT 10SM BKN012 OVC018 19/17 A2986 RMK AO2 T01880173

More Conditions Fewer Conditions

Pressure 29.86 in
Visibility 10.0 miles
Clouds Mostly Cloudy 1200 ft
Overcast 1800 ft
Dew Point 64 °F
Humidity 99%
Rainfall in
Snow Depth Not available.
UV 2 out of 12
Pollen 2.00 out of 12
Air Quality Not available.
Flu Activity Not available.
METAR KEHO 051535Z AUTO 20013G21KT 10SM BKN012 OVC018 19/17 A2986 RMK AO2 T01880173

More Conditions Fewer Conditions

10-Day Weather Forecast

Almanac

Astronomy

Mar. 05, 2015 Rise Set
Actual Time
Civil Twilight
Nautical Twilight
Astronomical Twilight
Moon
Length of Visible Light
Length of Day
Tomorrow will be .
, % of the Moon is Illuminated

Today's Extremes

State Highs State Lows

Community

WunderPhotos

Upload Photos

1,802,825 photos uploaded!

WunderBlogs® & News

Nearby

Air Quality

  Air Quality AQ Index Pollutant
Not available.

Snow Depth

Station Depth Elevation

Earthquake Activity

City Distance Mag. Time & Date
Minimum magnitude displayed is 2.5.

Coastal Water Temperatures

Place Temperature

Nearby Weather Stations